sensor_id;sensor_type;location;lat;lon;timestamp;P1;durP1;ratioP1;P2;durP2;ratioP2
13891;SDS011;7016;48.172;8.058;2023-08-01T00:01:57;6.63;;;3.63;;
13891;SDS011;7016;48.172;8.058;2023-08-01T00:04:23;9.10;;;4.00;;
13891;SDS011;7016;48.172;8.058;2023-08-01T00:06:48;5.82;;;3.25;;
13891;SDS011;7016;48.172;8.058;2023-08-01T00:09:14;7.97;;;3.95;;
13891;SDS011;7016;48.172;8.058;2023-08-01T00:11:40;7.28;;;3.75;;
13891;SDS011;7016;48.172;8.058;2023-08-01T00:14:05;6.90;;;3.72;;
13891;SDS011;7016;48.172;8.058;2023-08-01T00:16:31;6.22;;;3.90;;
13891;SDS011;7016;48.172;8.058;2023-08-01T00:18:57;7.80;;;4.35;;
13891;SDS011;7016;48.172;8.058;2023-08-01T00:21:23;11.52;;;4.47;;
13891;SDS011;7016;48.172;8.058;2023-08-01T00:23:48;7.88;;;4.43;;
13891;SDS011;7016;48.172;8.058;2023-08-01T00:26:18;7.90;;;4.45;;
13891;SDS011;7016;48.172;8.058;2023-08-01T00:28:43;10.25;;;4.20;;
13891;SDS011;7016;48.172;8.058;2023-08-01T00:31:09;9.38;;;4.20;;
13891;SDS011;7016;48.172;8.058;2023-08-01T00:33:35;8.90;;;4.18;;
13891;SDS011;7016;48.172;8.058;2023-08-01T00:36:00;9.45;;;4.40;;
13891;SDS011;7016;48.172;8.058;2023-08-01T00:38:26;7.75;;;4.18;;
13891;SDS011;7016;48.172;8.058;2023-08-01T00:40:52;9.15;;;4.03;;
13891;SDS011;7016;48.172;8.058;2023-08-01T00:43:18;8.00;;;4.13;;
13891;SDS011;7016;48.172;8.058;2023-08-01T00:45:44;6.85;;;4.00;;
13891;SDS011;7016;48.172;8.058;2023-08-01T00:48:11;6.45;;;4.10;;
13891;SDS011;7016;48.172;8.058;2023-08-01T00:50:37;9.07;;;4.22;;
13891;SDS011;7016;48.172;8.058;2023-08-01T00:53:04;9.00;;;4.72;;
13891;SDS011;7016;48.172;8.058;2023-08-01T00:55:30;6.60;;;4.20;;
13891;SDS011;7016;48.172;8.058;2023-08-01T00:57:57;7.05;;;4.40;;
13891;SDS011;7016;48.172;8.058;2023-08-01T01:00:23;8.30;;;4.60;;
13891;SDS011;7016;48.172;8.058;2023-08-01T01:02:49;9.40;;;4.38;;
13891;SDS011;7016;48.172;8.058;2023-08-01T01:05:14;7.93;;;4.43;;
13891;SDS011;7016;48.172;8.058;2023-08-01T01:07:40;7.80;;;4.05;;
13891;SDS011;7016;48.172;8.058;2023-08-01T01:10:06;9.07;;;4.35;;
13891;SDS011;7016;48.172;8.058;2023-08-01T01:12:32;7.15;;;4.18;;
13891;SDS011;7016;48.172;8.058;2023-08-01T01:14:58;8.05;;;4.22;;
13891;SDS011;7016;48.172;8.058;2023-08-01T01:17:23;8.23;;;4.82;;
13891;SDS011;7016;48.172;8.058;2023-08-01T01:19:49;10.38;;;5.00;;
13891;SDS011;7016;48.172;8.058;2023-08-01T01:22:15;8.77;;;4.70;;
13891;SDS011;7016;48.172;8.058;2023-08-01T01:24:42;9.18;;;4.97;;
13891;SDS011;7016;48.172;8.058;2023-08-01T01:27:11;9.85;;;4.43;;
13891;SDS011;7016;48.172;8.058;2023-08-01T01:29:37;8.25;;;4.22;;
13891;SDS011;7016;48.172;8.058;2023-08-01T01:32:04;7.30;;;4.07;;
13891;SDS011;7016;48.172;8.058;2023-08-01T01:34:31;10.55;;;4.55;;
13891;SDS011;7016;48.172;8.058;2023-08-01T01:36:57;8.02;;;4.45;;
13891;SDS011;7016;48.172;8.058;2023-08-01T01:39:22;9.82;;;4.47;;
13891;SDS011;7016;48.172;8.058;2023-08-01T01:41:48;9.43;;;4.03;;
13891;SDS011;7016;48.172;8.058;2023-08-01T01:44:13;7.85;;;3.97;;
13891;SDS011;7016;48.172;8.058;2023-08-01T01:46:39;9.20;;;3.95;;
13891;SDS011;7016;48.172;8.058;2023-08-01T01:49:05;6.32;;;3.90;;
13891;SDS011;7016;48.172;8.058;2023-08-01T01:51:31;9.25;;;4.18;;
13891;SDS011;7016;48.172;8.058;2023-08-01T01:53:57;6.07;;;3.65;;
13891;SDS011;7016;48.172;8.058;2023-08-01T01:56:22;10.57;;;4.10;;
13891;SDS011;7016;48.172;8.058;2023-08-01T01:58:48;15.82;;;4.07;;
13891;SDS011;7016;48.172;8.058;2023-08-01T02:01:14;10.60;;;4.43;;
13891;SDS011;7016;48.172;8.058;2023-08-01T02:03:40;6.97;;;3.65;;
13891;SDS011;7016;48.172;8.058;2023-08-01T02:06:05;8.23;;;3.67;;
13891;SDS011;7016;48.172;8.058;2023-08-01T02:08:31;8.85;;;4.28;;
13891;SDS011;7016;48.172;8.058;2023-08-01T02:10:57;9.15;;;3.97;;
13891;SDS011;7016;48.172;8.058;2023-08-01T02:13:26;6.65;;;3.60;;
13891;SDS011;7016;48.172;8.058;2023-08-01T02:15:53;6.30;;;3.67;;
13891;SDS011;7016;48.172;8.058;2023-08-01T02:18:20;9.18;;;3.92;;
13891;SDS011;7016;48.172;8.058;2023-08-01T02:20:45;9.90;;;4.28;;
13891;SDS011;7016;48.172;8.058;2023-08-01T02:23:11;10.77;;;4.30;;
13891;SDS011;7016;48.172;8.058;2023-08-01T02:25:40;9.18;;;4.13;;
13891;SDS011;7016;48.172;8.058;2023-08-01T02:28:06;10.15;;;4.10;;
13891;SDS011;7016;48.172;8.058;2023-08-01T02:30:32;7.45;;;3.50;;
13891;SDS011;7016;48.172;8.058;2023-08-01T02:32:59;8.25;;;4.07;;
13891;SDS011;7016;48.172;8.058;2023-08-01T02:35:24;8.13;;;3.80;;
13891;SDS011;7016;48.172;8.058;2023-08-01T02:37:50;6.95;;;3.55;;
13891;SDS011;7016;48.172;8.058;2023-08-01T02:40:16;7.43;;;3.65;;
13891;SDS011;7016;48.172;8.058;2023-08-01T02:42:41;8.15;;;3.78;;
13891;SDS011;7016;48.172;8.058;2023-08-01T02:45:07;9.00;;;4.05;;
13891;SDS011;7016;48.172;8.058;2023-08-01T02:47:33;8.18;;;3.85;;
13891;SDS011;7016;48.172;8.058;2023-08-01T02:49:59;8.15;;;3.65;;
13891;SDS011;7016;48.172;8.058;2023-08-01T02:52:24;11.20;;;3.50;;
13891;SDS011;7016;48.172;8.058;2023-08-01T02:54:50;7.30;;;3.70;;
13891;SDS011;7016;48.172;8.058;2023-08-01T02:57:16;9.40;;;3.60;;
13891;SDS011;7016;48.172;8.058;2023-08-01T02:59:41;7.80;;;3.63;;
13891;SDS011;7016;48.172;8.058;2023-08-01T03:02:07;11.93;;;3.97;;
13891;SDS011;7016;48.172;8.058;2023-08-01T03:04:33;6.15;;;3.67;;
13891;SDS011;7016;48.172;8.058;2023-08-01T03:06:58;7.45;;;3.53;;
13891;SDS011;7016;48.172;8.058;2023-08-01T03:09:24;9.38;;;3.75;;
13891;SDS011;7016;48.172;8.058;2023-08-01T03:11:49;9.15;;;3.80;;
13891;SDS011;7016;48.172;8.058;2023-08-01T03:14:16;13.40;;;4.07;;
13891;SDS011;7016;48.172;8.058;2023-08-01T03:16:42;7.72;;;3.47;;
13891;SDS011;7016;48.172;8.058;2023-08-01T03:19:08;7.95;;;3.72;;
13891;SDS011;7016;48.172;8.058;2023-08-01T03:21:34;8.27;;;3.95;;
13891;SDS011;7016;48.172;8.058;2023-08-01T03:24:00;9.68;;;3.63;;
13891;SDS011;7016;48.172;8.058;2023-08-01T03:26:26;10.13;;;4.13;;
13891;SDS011;7016;48.172;8.058;2023-08-01T03:28:53;6.40;;;3.40;;
13891;SDS011;7016;48.172;8.058;2023-08-01T03:31:20;8.00;;;3.55;;
13891;SDS011;7016;48.172;8.058;2023-08-01T03:33:49;9.55;;;4.22;;
13891;SDS011;7016;48.172;8.058;2023-08-01T03:36:15;8.43;;;3.85;;
13891;SDS011;7016;48.172;8.058;2023-08-01T03:38:40;13.50;;;3.78;;
13891;SDS011;7016;48.172;8.058;2023-08-01T03:41:06;10.10;;;4.13;;
13891;SDS011;7016;48.172;8.058;2023-08-01T03:43:32;7.47;;;3.40;;
13891;SDS011;7016;48.172;8.058;2023-08-01T03:45:57;10.95;;;3.92;;
13891;SDS011;7016;48.172;8.058;2023-08-01T03:48:23;9.57;;;4.32;;
13891;SDS011;7016;48.172;8.058;2023-08-01T03:50:49;10.15;;;4.22;;
13891;SDS011;7016;48.172;8.058;2023-08-01T03:53:14;14.10;;;4.40;;
13891;SDS011;7016;48.172;8.058;2023-08-01T03:55:40;11.00;;;4.50;;
13891;SDS011;7016;48.172;8.058;2023-08-01T03:58:07;9.25;;;3.58;;
13891;SDS011;7016;48.172;8.058;2023-08-01T04:00:33;9.52;;;3.80;;
13891;SDS011;7016;48.172;8.058;2023-08-01T04:02:59;11.05;;;4.30;;
13891;SDS011;7016;48.172;8.058;2023-08-01T04:05:26;10.35;;;4.03;;
13891;SDS011;7016;48.172;8.058;2023-08-01T04:07:52;10.20;;;4.10;;
13891;SDS011;7016;48.172;8.058;2023-08-01T04:10:20;7.47;;;3.85;;
13891;SDS011;7016;48.172;8.058;2023-08-01T04:12:46;11.50;;;4.18;;
13891;SDS011;7016;48.172;8.058;2023-08-01T04:15:12;9.65;;;3.70;;
13891;SDS011;7016;48.172;8.058;2023-08-01T04:17:37;11.93;;;4.20;;
13891;SDS011;7016;48.172;8.058;2023-08-01T04:20:04;10.65;;;4.40;;
13891;SDS011;7016;48.172;8.058;2023-08-01T04:22:30;12.85;;;4.70;;
13891;SDS011;7016;48.172;8.058;2023-08-01T04:24:56;11.25;;;4.32;;
13891;SDS011;7016;48.172;8.058;2023-08-01T04:27:21;10.45;;;4.32;;
13891;SDS011;7016;48.172;8.058;2023-08-01T04:29:47;7.75;;;4.55;;
13891;SDS011;7016;48.172;8.058;2023-08-01T04:32:13;13.10;;;4.80;;
13891;SDS011;7016;48.172;8.058;2023-08-01T04:34:40;8.77;;;4.47;;
13891;SDS011;7016;48.172;8.058;2023-08-01T04:37:06;9.35;;;4.35;;
13891;SDS011;7016;48.172;8.058;2023-08-01T04:39:32;10.90;;;4.45;;
13891;SDS011;7016;48.172;8.058;2023-08-01T04:41:58;9.90;;;4.47;;
13891;SDS011;7016;48.172;8.058;2023-08-01T04:44:24;10.40;;;4.88;;
13891;SDS011;7016;48.172;8.058;2023-08-01T04:46:50;9.27;;;4.00;;
13891;SDS011;7016;48.172;8.058;2023-08-01T04:49:15;6.47;;;4.13;;
13891;SDS011;7016;48.172;8.058;2023-08-01T04:51:41;12.18;;;5.25;;
13891;SDS011;7016;48.172;8.058;2023-08-01T04:54:07;10.32;;;4.78;;
13891;SDS011;7016;48.172;8.058;2023-08-01T04:56:32;9.55;;;5.30;;
13891;SDS011;7016;48.172;8.058;2023-08-01T04:58:58;9.32;;;5.07;;
13891;SDS011;7016;48.172;8.058;2023-08-01T05:01:24;13.88;;;5.10;;
13891;SDS011;7016;48.172;8.058;2023-08-01T05:03:49;10.55;;;5.45;;
13891;SDS011;7016;48.172;8.058;2023-08-01T05:06:15;9.05;;;5.43;;
13891;SDS011;7016;48.172;8.058;2023-08-01T05:08:41;9.32;;;5.57;;
13891;SDS011;7016;48.172;8.058;2023-08-01T05:11:06;11.88;;;5.55;;
13891;SDS011;7016;48.172;8.058;2023-08-01T05:13:32;11.02;;;5.47;;
13891;SDS011;7016;48.172;8.058;2023-08-01T05:15:58;9.35;;;5.13;;
13891;SDS011;7016;48.172;8.058;2023-08-01T05:18:23;16.25;;;5.50;;
13891;SDS011;7016;48.172;8.058;2023-08-01T05:20:49;11.05;;;5.03;;
13891;SDS011;7016;48.172;8.058;2023-08-01T05:23:15;11.85;;;5.50;;
13891;SDS011;7016;48.172;8.058;2023-08-01T05:25:40;9.50;;;5.43;;
13891;SDS011;7016;48.172;8.058;2023-08-01T05:28:06;12.00;;;5.05;;
13891;SDS011;7016;48.172;8.058;2023-08-01T05:30:32;12.60;;;5.55;;
13891;SDS011;7016;48.172;8.058;2023-08-01T05:32:57;12.38;;;5.72;;
13891;SDS011;7016;48.172;8.058;2023-08-01T05:35:23;9.52;;;5.10;;
13891;SDS011;7016;48.172;8.058;2023-08-01T05:37:49;13.00;;;5.07;;
13891;SDS011;7016;48.172;8.058;2023-08-01T05:40:14;8.52;;;5.63;;
13891;SDS011;7016;48.172;8.058;2023-08-01T05:42:40;15.60;;;6.03;;
13891;SDS011;7016;48.172;8.058;2023-08-01T05:45:06;10.55;;;5.38;;
13891;SDS011;7016;48.172;8.058;2023-08-01T05:47:32;10.95;;;5.28;;
13891;SDS011;7016;48.172;8.058;2023-08-01T05:49:58;12.38;;;5.53;;
13891;SDS011;7016;48.172;8.058;2023-08-01T05:52:24;12.98;;;5.30;;
13891;SDS011;7016;48.172;8.058;2023-08-01T05:54:49;10.07;;;5.40;;
13891;SDS011;7016;48.172;8.058;2023-08-01T05:57:15;8.50;;;4.85;;
13891;SDS011;7016;48.172;8.058;2023-08-01T05:59:41;8.85;;;5.00;;
13891;SDS011;7016;48.172;8.058;2023-08-01T06:02:07;9.50;;;5.30;;
13891;SDS011;7016;48.172;8.058;2023-08-01T06:04:32;10.57;;;5.65;;
13891;SDS011;7016;48.172;8.058;2023-08-01T06:06:58;12.80;;;5.40;;
13891;SDS011;7016;48.172;8.058;2023-08-01T06:09:24;13.25;;;4.97;;
13891;SDS011;7016;48.172;8.058;2023-08-01T06:11:50;13.63;;;5.80;;
13891;SDS011;7016;48.172;8.058;2023-08-01T06:14:16;10.32;;;5.25;;
13891;SDS011;7016;48.172;8.058;2023-08-01T06:16:42;13.13;;;5.45;;
13891;SDS011;7016;48.172;8.058;2023-08-01T06:19:08;13.02;;;5.32;;
13891;SDS011;7016;48.172;8.058;2023-08-01T06:21:33;11.38;;;5.57;;
13891;SDS011;7016;48.172;8.058;2023-08-01T06:24:00;10.77;;;5.05;;
13891;SDS011;7016;48.172;8.058;2023-08-01T06:26:25;11.73;;;5.20;;
13891;SDS011;7016;48.172;8.058;2023-08-01T06:28:51;9.85;;;4.72;;
13891;SDS011;7016;48.172;8.058;2023-08-01T06:31:18;11.32;;;5.40;;
13891;SDS011;7016;48.172;8.058;2023-08-01T06:33:45;9.73;;;4.60;;
13891;SDS011;7016;48.172;8.058;2023-08-01T06:36:10;11.68;;;5.15;;
13891;SDS011;7016;48.172;8.058;2023-08-01T06:38:36;8.82;;;4.68;;
13891;SDS011;7016;48.172;8.058;2023-08-01T06:41:02;13.13;;;5.10;;
13891;SDS011;7016;48.172;8.058;2023-08-01T06:43:28;10.10;;;5.07;;
13891;SDS011;7016;48.172;8.058;2023-08-01T06:45:53;11.20;;;5.57;;
13891;SDS011;7016;48.172;8.058;2023-08-01T06:48:19;13.90;;;5.45;;
13891;SDS011;7016;48.172;8.058;2023-08-01T06:50:45;8.60;;;4.47;;
13891;SDS011;7016;48.172;8.058;2023-08-01T06:53:10;10.43;;;4.40;;
13891;SDS011;7016;48.172;8.058;2023-08-01T06:55:36;9.25;;;4.82;;
13891;SDS011;7016;48.172;8.058;2023-08-01T06:58:03;8.15;;;4.82;;
13891;SDS011;7016;48.172;8.058;2023-08-01T07:00:29;9.82;;;4.47;;
13891;SDS011;7016;48.172;8.058;2023-08-01T07:02:55;9.75;;;4.97;;
13891;SDS011;7016;48.172;8.058;2023-08-01T07:05:21;9.18;;;4.63;;
13891;SDS011;7016;48.172;8.058;2023-08-01T07:07:47;11.40;;;4.85;;
13891;SDS011;7016;48.172;8.058;2023-08-01T07:10:12;7.55;;;4.38;;
13891;SDS011;7016;48.172;8.058;2023-08-01T07:12:38;8.90;;;4.55;;
13891;SDS011;7016;48.172;8.058;2023-08-01T07:15:04;8.20;;;4.55;;
13891;SDS011;7016;48.172;8.058;2023-08-01T07:17:30;10.20;;;4.60;;
13891;SDS011;7016;48.172;8.058;2023-08-01T07:19:55;8.05;;;4.15;;
13891;SDS011;7016;48.172;8.058;2023-08-01T07:22:21;8.80;;;4.57;;
13891;SDS011;7016;48.172;8.058;2023-08-01T07:24:47;8.20;;;4.60;;
13891;SDS011;7016;48.172;8.058;2023-08-01T07:27:12;9.05;;;4.03;;
13891;SDS011;7016;48.172;8.058;2023-08-01T07:29:38;10.10;;;4.45;;
13891;SDS011;7016;48.172;8.058;2023-08-01T07:32:04;8.20;;;3.92;;
13891;SDS011;7016;48.172;8.058;2023-08-01T07:34:30;8.85;;;4.50;;
13891;SDS011;7016;48.172;8.058;2023-08-01T07:36:55;7.15;;;4.20;;
13891;SDS011;7016;48.172;8.058;2023-08-01T07:39:21;9.55;;;3.88;;
13891;SDS011;7016;48.172;8.058;2023-08-01T07:41:47;10.82;;;4.45;;
13891;SDS011;7016;48.172;8.058;2023-08-01T07:44:12;10.43;;;4.32;;
13891;SDS011;7016;48.172;8.058;2023-08-01T07:46:38;11.38;;;4.38;;
13891;SDS011;7016;48.172;8.058;2023-08-01T07:49:04;7.30;;;4.03;;
13891;SDS011;7016;48.172;8.058;2023-08-01T07:51:29;9.15;;;4.47;;
13891;SDS011;7016;48.172;8.058;2023-08-01T07:53:55;9.45;;;4.70;;
13891;SDS011;7016;48.172;8.058;2023-08-01T07:56:22;8.93;;;4.30;;
13891;SDS011;7016;48.172;8.058;2023-08-01T07:58:48;8.90;;;4.13;;
13891;SDS011;7016;48.172;8.058;2023-08-01T08:01:13;10.52;;;4.55;;
13891;SDS011;7016;48.172;8.058;2023-08-01T08:03:39;8.80;;;4.53;;
13891;SDS011;7016;48.172;8.058;2023-08-01T08:06:04;7.45;;;3.85;;
13891;SDS011;7016;48.172;8.058;2023-08-01T08:08:30;9.02;;;4.03;;
13891;SDS011;7016;48.172;8.058;2023-08-01T08:10:58;7.38;;;3.85;;
13891;SDS011;7016;48.172;8.058;2023-08-01T08:13:24;6.90;;;3.80;;
13891;SDS011;7016;48.172;8.058;2023-08-01T08:15:50;6.57;;;3.08;;
13891;SDS011;7016;48.172;8.058;2023-08-01T08:18:16;9.10;;;3.58;;
13891;SDS011;7016;48.172;8.058;2023-08-01T08:20:44;5.32;;;3.35;;
13891;SDS011;7016;48.172;8.058;2023-08-01T08:23:10;9.23;;;2.90;;
13891;SDS011;7016;48.172;8.058;2023-08-01T08:25:39;6.80;;;3.22;;
13891;SDS011;7016;48.172;8.058;2023-08-01T08:28:05;5.90;;;2.90;;
13891;SDS011;7016;48.172;8.058;2023-08-01T08:30:30;7.18;;;3.80;;
13891;SDS011;7016;48.172;8.058;2023-08-01T08:32:59;6.55;;;3.30;;
13891;SDS011;7016;48.172;8.058;2023-08-01T08:35:29;4.47;;;2.88;;
13891;SDS011;7016;48.172;8.058;2023-08-01T08:37:55;8.65;;;3.10;;
13891;SDS011;7016;48.172;8.058;2023-08-01T08:40:22;6.00;;;2.90;;
13891;SDS011;7016;48.172;8.058;2023-08-01T08:42:48;5.78;;;3.00;;
13891;SDS011;7016;48.172;8.058;2023-08-01T08:45:18;5.80;;;2.80;;
13891;SDS011;7016;48.172;8.058;2023-08-01T08:47:45;4.50;;;2.78;;
13891;SDS011;7016;48.172;8.058;2023-08-01T08:50:18;5.78;;;3.05;;
13891;SDS011;7016;48.172;8.058;2023-08-01T08:52:44;6.60;;;2.90;;
13891;SDS011;7016;48.172;8.058;2023-08-01T08:55:11;3.92;;;1.90;;
13891;SDS011;7016;48.172;8.058;2023-08-01T08:57:37;5.28;;;2.90;;
13891;SDS011;7016;48.172;8.058;2023-08-01T09:00:05;3.17;;;2.20;;
13891;SDS011;7016;48.172;8.058;2023-08-01T09:02:32;3.88;;;2.35;;
13891;SDS011;7016;48.172;8.058;2023-08-01T09:04:58;5.03;;;2.80;;
13891;SDS011;7016;48.172;8.058;2023-08-01T09:07:24;4.25;;;2.78;;
13891;SDS011;7016;48.172;8.058;2023-08-01T09:09:57;4.78;;;2.75;;
13891;SDS011;7016;48.172;8.058;2023-08-01T09:12:23;8.10;;;3.10;;
13891;SDS011;7016;48.172;8.058;2023-08-01T09:14:50;8.18;;;2.97;;
13891;SDS011;7016;48.172;8.058;2023-08-01T09:17:16;6.57;;;3.00;;
13891;SDS011;7016;48.172;8.058;2023-08-01T09:19:43;4.38;;;2.30;;
13891;SDS011;7016;48.172;8.058;2023-08-01T09:22:12;6.85;;;2.67;;
13891;SDS011;7016;48.172;8.058;2023-08-01T09:24:39;10.82;;;3.72;;
13891;SDS011;7016;48.172;8.058;2023-08-01T09:27:15;12.60;;;4.93;;
13891;SDS011;7016;48.172;8.058;2023-08-01T09:29:41;4.22;;;2.40;;
13891;SDS011;7016;48.172;8.058;2023-08-01T09:32:13;3.97;;;2.40;;
13891;SDS011;7016;48.172;8.058;2023-08-01T09:34:40;6.13;;;2.40;;
13891;SDS011;7016;48.172;8.058;2023-08-01T09:37:07;4.65;;;2.42;;
13891;SDS011;7016;48.172;8.058;2023-08-01T09:39:33;5.30;;;3.10;;
13891;SDS011;7016;48.172;8.058;2023-08-01T09:41:59;5.13;;;3.10;;
13891;SDS011;7016;48.172;8.058;2023-08-01T09:44:27;5.85;;;2.78;;
13891;SDS011;7016;48.172;8.058;2023-08-01T09:47:00;5.15;;;3.08;;
13891;SDS011;7016;48.172;8.058;2023-08-01T09:49:28;4.80;;;2.60;;
13891;SDS011;7016;48.172;8.058;2023-08-01T09:51:55;6.32;;;2.78;;
13891;SDS011;7016;48.172;8.058;2023-08-01T09:54:21;6.47;;;2.88;;
13891;SDS011;7016;48.172;8.058;2023-08-01T09:56:49;5.55;;;3.10;;
13891;SDS011;7016;48.172;8.058;2023-08-01T09:59:25;6.30;;;3.10;;
13891;SDS011;7016;48.172;8.058;2023-08-01T10:01:52;5.28;;;3.15;;
13891;SDS011;7016;48.172;8.058;2023-08-01T10:04:52;4.90;;;2.80;;
13891;SDS011;7016;48.172;8.058;2023-08-01T10:07:11;8.10;;;3.17;;
13891;SDS011;7016;48.172;8.058;2023-08-01T10:09:41;5.85;;;3.17;;
13891;SDS011;7016;48.172;8.058;2023-08-01T10:12:08;5.78;;;3.13;;
13891;SDS011;7016;48.172;8.058;2023-08-01T10:14:37;7.25;;;3.70;;
13891;SDS011;7016;48.172;8.058;2023-08-01T10:17:04;6.13;;;3.30;;
13891;SDS011;7016;48.172;8.058;2023-08-01T10:19:31;6.13;;;2.75;;
13891;SDS011;7016;48.172;8.058;2023-08-01T10:22:00;4.60;;;2.70;;
13891;SDS011;7016;48.172;8.058;2023-08-01T10:24:26;3.80;;;2.60;;
13891;SDS011;7016;48.172;8.058;2023-08-01T10:26:53;5.95;;;2.92;;
13891;SDS011;7016;48.172;8.058;2023-08-01T10:29:19;4.30;;;2.60;;
13891;SDS011;7016;48.172;8.058;2023-08-01T10:31:51;5.10;;;2.53;;
13891;SDS011;7016;48.172;8.058;2023-08-01T10:34:18;5.28;;;2.55;;
13891;SDS011;7016;48.172;8.058;2023-08-01T10:36:53;7.35;;;2.88;;
13891;SDS011;7016;48.172;8.058;2023-08-01T10:39:23;6.75;;;2.75;;
13891;SDS011;7016;48.172;8.058;2023-08-01T10:41:57;7.88;;;3.00;;
13891;SDS011;7016;48.172;8.058;2023-08-01T10:44:24;5.63;;;2.95;;
13891;SDS011;7016;48.172;8.058;2023-08-01T10:46:57;6.18;;;2.85;;
13891;SDS011;7016;48.172;8.058;2023-08-01T10:52:24;5.47;;;2.80;;
13891;SDS011;7016;48.172;8.058;2023-08-01T10:54:55;11.55;;;3.08;;
13891;SDS011;7016;48.172;8.058;2023-08-01T10:57:23;5.28;;;2.92;;
13891;SDS011;7016;48.172;8.058;2023-08-01T10:59:49;7.93;;;2.78;;
13891;SDS011;7016;48.172;8.058;2023-08-01T11:02:22;6.35;;;2.20;;
13891;SDS011;7016;48.172;8.058;2023-08-01T11:04:58;7.85;;;1.85;;
13891;SDS011;7016;48.172;8.058;2023-08-01T11:07:25;3.53;;;1.80;;
13891;SDS011;7016;48.172;8.058;2023-08-01T11:10:11;4.20;;;1.92;;
13891;SDS011;7016;48.172;8.058;2023-08-01T11:12:41;2.72;;;1.75;;
13891;SDS011;7016;48.172;8.058;2023-08-01T11:15:12;2.10;;;1.50;;
13891;SDS011;7016;48.172;8.058;2023-08-01T11:17:40;3.67;;;1.58;;
13891;SDS011;7016;48.172;8.058;2023-08-01T11:20:08;2.10;;;1.30;;
13891;SDS011;7016;48.172;8.058;2023-08-01T11:22:35;3.13;;;1.75;;
13891;SDS011;7016;48.172;8.058;2023-08-01T11:25:02;2.30;;;1.50;;
13891;SDS011;7016;48.172;8.058;2023-08-01T11:27:28;4.72;;;1.63;;
13891;SDS011;7016;48.172;8.058;2023-08-01T11:29:54;2.92;;;1.33;;
13891;SDS011;7016;48.172;8.058;2023-08-01T11:32:21;3.20;;;1.42;;
13891;SDS011;7016;48.172;8.058;2023-08-01T11:34:57;1.38;;;1.00;;
13891;SDS011;7016;48.172;8.058;2023-08-01T11:37:25;1.70;;;1.30;;
13891;SDS011;7016;48.172;8.058;2023-08-01T11:39:51;24.45;;;1.45;;
13891;SDS011;7016;48.172;8.058;2023-08-01T11:42:18;2.22;;;1.10;;
13891;SDS011;7016;48.172;8.058;2023-08-01T11:44:44;3.67;;;1.20;;
13891;SDS011;7016;48.172;8.058;2023-08-01T11:47:10;2.53;;;0.77;;
13891;SDS011;7016;48.172;8.058;2023-08-01T11:49:47;2.10;;;1.00;;
13891;SDS011;7016;48.172;8.058;2023-08-01T11:54:49;2.03;;;0.90;;
13891;SDS011;7016;48.172;8.058;2023-08-01T11:57:15;2.15;;;1.25;;
13891;SDS011;7016;48.172;8.058;2023-08-01T11:59:50;4.35;;;1.00;;
13891;SDS011;7016;48.172;8.058;2023-08-01T12:02:26;1.20;;;1.00;;
13891;SDS011;7016;48.172;8.058;2023-08-01T12:04:53;1.40;;;0.70;;
13891;SDS011;7016;48.172;8.058;2023-08-01T12:07:19;2.90;;;0.80;;
13891;SDS011;7016;48.172;8.058;2023-08-01T12:12:28;0.95;;;0.80;;
13891;SDS011;7016;48.172;8.058;2023-08-01T12:14:57;1.73;;;0.90;;
13891;SDS011;7016;48.172;8.058;2023-08-01T12:17:23;2.83;;;0.90;;
13891;SDS011;7016;48.172;8.058;2023-08-01T12:19:48;1.27;;;0.60;;
13891;SDS011;7016;48.172;8.058;2023-08-01T12:22:14;1.27;;;0.73;;
13891;SDS011;7016;48.172;8.058;2023-08-01T12:24:40;1.38;;;0.80;;
13891;SDS011;7016;48.172;8.058;2023-08-01T12:27:07;1.20;;;0.80;;
13891;SDS011;7016;48.172;8.058;2023-08-01T12:29:33;1.20;;;0.75;;
13891;SDS011;7016;48.172;8.058;2023-08-01T12:31:59;2.47;;;1.00;;
13891;SDS011;7016;48.172;8.058;2023-08-01T12:34:24;2.33;;;0.90;;
13891;SDS011;7016;48.172;8.058;2023-08-01T12:36:50;2.78;;;0.80;;
13891;SDS011;7016;48.172;8.058;2023-08-01T12:39:16;1.05;;;0.85;;
13891;SDS011;7016;48.172;8.058;2023-08-01T12:41:41;3.10;;;0.75;;
13891;SDS011;7016;48.172;8.058;2023-08-01T12:44:07;1.25;;;0.80;;
13891;SDS011;7016;48.172;8.058;2023-08-01T12:46:33;1.25;;;0.85;;
13891;SDS011;7016;48.172;8.058;2023-08-01T12:48:58;1.35;;;0.90;;
13891;SDS011;7016;48.172;8.058;2023-08-01T12:51:24;1.58;;;0.80;;
13891;SDS011;7016;48.172;8.058;2023-08-01T12:53:50;1.20;;;0.80;;
13891;SDS011;7016;48.172;8.058;2023-08-01T12:56:16;4.22;;;1.60;;
13891;SDS011;7016;48.172;8.058;2023-08-01T12:58:41;2.30;;;0.90;;
13891;SDS011;7016;48.172;8.058;2023-08-01T13:01:07;5.65;;;0.90;;
13891;SDS011;7016;48.172;8.058;2023-08-01T13:03:33;1.10;;;0.90;;
13891;SDS011;7016;48.172;8.058;2023-08-01T13:05:59;2.28;;;1.00;;
13891;SDS011;7016;48.172;8.058;2023-08-01T13:08:24;1.17;;;0.80;;
13891;SDS011;7016;48.172;8.058;2023-08-01T13:10:50;0.90;;;0.80;;
13891;SDS011;7016;48.172;8.058;2023-08-01T13:13:17;0.98;;;0.88;;
13891;SDS011;7016;48.172;8.058;2023-08-01T13:15:42;1.63;;;0.90;;
13891;SDS011;7016;48.172;8.058;2023-08-01T13:18:09;1.95;;;0.80;;
13891;SDS011;7016;48.172;8.058;2023-08-01T13:20:35;2.20;;;0.80;;
13891;SDS011;7016;48.172;8.058;2023-08-01T13:23:01;1.52;;;0.80;;
13891;SDS011;7016;48.172;8.058;2023-08-01T13:25:28;2.08;;;1.00;;
13891;SDS011;7016;48.172;8.058;2023-08-01T13:27:54;1.65;;;0.80;;
13891;SDS011;7016;48.172;8.058;2023-08-01T13:30:19;2.45;;;0.80;;
13891;SDS011;7016;48.172;8.058;2023-08-01T13:32:45;2.05;;;0.80;;
13891;SDS011;7016;48.172;8.058;2023-08-01T13:35:11;1.20;;;0.90;;
13891;SDS011;7016;48.172;8.058;2023-08-01T13:37:37;1.40;;;0.98;;
13891;SDS011;7016;48.172;8.058;2023-08-01T13:40:05;2.70;;;0.80;;
13891;SDS011;7016;48.172;8.058;2023-08-01T13:42:31;1.60;;;0.98;;
13891;SDS011;7016;48.172;8.058;2023-08-01T13:44:57;2.35;;;0.70;;
13891;SDS011;7016;48.172;8.058;2023-08-01T13:47:22;1.05;;;0.82;;
13891;SDS011;7016;48.172;8.058;2023-08-01T13:49:48;3.42;;;0.90;;
13891;SDS011;7016;48.172;8.058;2023-08-01T13:52:14;3.67;;;0.90;;
13891;SDS011;7016;48.172;8.058;2023-08-01T13:54:40;4.75;;;1.88;;
13891;SDS011;7016;48.172;8.058;2023-08-01T13:57:05;2.13;;;1.02;;
13891;SDS011;7016;48.172;8.058;2023-08-01T13:59:31;1.30;;;0.80;;
13891;SDS011;7016;48.172;8.058;2023-08-01T14:01:57;2.13;;;0.80;;
13891;SDS011;7016;48.172;8.058;2023-08-01T14:04:23;2.35;;;0.90;;
13891;SDS011;7016;48.172;8.058;2023-08-01T14:06:48;1.15;;;0.70;;
13891;SDS011;7016;48.172;8.058;2023-08-01T14:09:14;4.07;;;0.90;;
13891;SDS011;7016;48.172;8.058;2023-08-01T14:11:40;1.33;;;0.90;;
13891;SDS011;7016;48.172;8.058;2023-08-01T14:14:06;1.25;;;0.80;;
13891;SDS011;7016;48.172;8.058;2023-08-01T14:16:31;1.42;;;0.80;;
13891;SDS011;7016;48.172;8.058;2023-08-01T14:19:00;6.70;;;1.20;;
13891;SDS011;7016;48.172;8.058;2023-08-01T14:21:26;1.05;;;0.90;;
13891;SDS011;7016;48.172;8.058;2023-08-01T14:23:52;1.50;;;0.88;;
13891;SDS011;7016;48.172;8.058;2023-08-01T14:26:17;4.43;;;0.80;;
13891;SDS011;7016;48.172;8.058;2023-08-01T14:28:43;2.55;;;0.88;;
13891;SDS011;7016;48.172;8.058;2023-08-01T14:31:09;1.38;;;0.80;;
13891;SDS011;7016;48.172;8.058;2023-08-01T14:33:34;2.35;;;1.00;;
13891;SDS011;7016;48.172;8.058;2023-08-01T14:36:00;1.23;;;0.85;;
13891;SDS011;7016;48.172;8.058;2023-08-01T14:38:26;1.98;;;1.17;;
13891;SDS011;7016;48.172;8.058;2023-08-01T14:40:52;1.92;;;1.20;;
13891;SDS011;7016;48.172;8.058;2023-08-01T14:43:18;1.20;;;1.00;;
13891;SDS011;7016;48.172;8.058;2023-08-01T14:45:44;2.85;;;1.33;;
13891;SDS011;7016;48.172;8.058;2023-08-01T14:48:10;1.52;;;1.13;;
13891;SDS011;7016;48.172;8.058;2023-08-01T14:50:37;2.42;;;0.95;;
13891;SDS011;7016;48.172;8.058;2023-08-01T14:53:03;2.95;;;1.10;;
13891;SDS011;7016;48.172;8.058;2023-08-01T14:55:31;1.17;;;0.95;;
13891;SDS011;7016;48.172;8.058;2023-08-01T14:57:57;2.20;;;1.00;;
13891;SDS011;7016;48.172;8.058;2023-08-01T15:00:23;1.20;;;1.02;;
13891;SDS011;7016;48.172;8.058;2023-08-01T15:02:48;3.50;;;1.20;;